sensor_id;sensor_type;location;lat;lon;timestamp;P1;P2;P0
72854;PMS7003;60991;51.278;22.550;2023-06-24T00:00:56;22.25;19.75;13.75
72854;PMS7003;60991;51.278;22.550;2023-06-24T00:02:26;23.50;22.00;14.25
72854;PMS7003;60991;51.278;22.550;2023-06-24T00:03:56;26.25;22.50;16.50
72854;PMS7003;60991;51.278;22.550;2023-06-24T00:05:27;25.00;23.50;16.00
72854;PMS7003;60991;51.278;22.550;2023-06-24T00:06:59;27.25;25.50;17.25
72854;PMS7003;60991;51.278;22.550;2023-06-24T00:08:29;22.25;21.25;12.50
72854;PMS7003;60991;51.278;22.550;2023-06-24T00:10:00;24.50;23.00;15.00
72854;PMS7003;60991;51.278;22.550;2023-06-24T00:11:30;22.75;22.75;15.75
72854;PMS7003;60991;51.278;22.550;2023-06-24T00:13:00;26.50;23.25;17.00
72854;PMS7003;60991;51.278;22.550;2023-06-24T00:14:30;23.75;21.25;14.00
72854;PMS7003;60991;51.278;22.550;2023-06-24T00:16:00;23.00;23.00;16.50
72854;PMS7003;60991;51.278;22.550;2023-06-24T00:17:31;29.25;24.75;13.75
72854;PMS7003;60991;51.278;22.550;2023-06-24T00:19:01;23.00;22.00;16.25
72854;PMS7003;60991;51.278;22.550;2023-06-24T00:20:31;23.00;21.75;14.50
72854;PMS7003;60991;51.278;22.550;2023-06-24T00:22:01;19.25;18.25;14.00
72854;PMS7003;60991;51.278;22.550;2023-06-24T00:23:32;26.75;20.00;14.00
72854;PMS7003;60991;51.278;22.550;2023-06-24T00:25:02;19.50;18.75;12.25
72854;PMS7003;60991;51.278;22.550;2023-06-24T00:26:32;17.50;16.50;10.50
72854;PMS7003;60991;51.278;22.550;2023-06-24T00:28:02;16.75;15.25;9.00
72854;PMS7003;60991;51.278;22.550;2023-06-24T00:29:33;14.50;14.25;10.25
72854;PMS7003;60991;51.278;22.550;2023-06-24T00:31:03;14.25;14.00;8.75
72854;PMS7003;60991;51.278;22.550;2023-06-24T00:32:33;11.75;11.75;9.25
72854;PMS7003;60991;51.278;22.550;2023-06-24T00:34:03;13.50;13.00;9.75
72854;PMS7003;60991;51.278;22.550;2023-06-24T00:35:34;14.00;13.00;8.50
72854;PMS7003;60991;51.278;22.550;2023-06-24T00:37:04;15.50;14.00;8.75
72854;PMS7003;60991;51.278;22.550;2023-06-24T00:38:34;16.00;12.00;10.00
72854;PMS7003;60991;51.278;22.550;2023-06-24T00:40:05;11.25;11.25;9.00
72854;PMS7003;60991;51.278;22.550;2023-06-24T00:41:35;9.75;8.00;6.50
72854;PMS7003;60991;51.278;22.550;2023-06-24T00:43:06;13.50;12.00;8.00
72854;PMS7003;60991;51.278;22.550;2023-06-24T00:44:36;9.00;9.00;6.75
72854;PMS7003;60991;51.278;22.550;2023-06-24T00:46:06;8.75;7.00;6.00
72854;PMS7003;60991;51.278;22.550;2023-06-24T00:47:37;10.00;10.00;7.75
72854;PMS7003;60991;51.278;22.550;2023-06-24T00:49:08;8.00;7.25;6.50
72854;PMS7003;60991;51.278;22.550;2023-06-24T00:50:38;8.75;7.75;5.50
72854;PMS7003;60991;51.278;22.550;2023-06-24T00:52:08;9.75;9.50;5.75
72854;PMS7003;60991;51.278;22.550;2023-06-24T00:53:39;10.00;9.25;7.00
72854;PMS7003;60991;51.278;22.550;2023-06-24T00:55:12;5.75;5.75;1.75
72854;PMS7003;60991;51.278;22.550;2023-06-24T00:56:45;9.50;9.50;8.00
72854;PMS7003;60991;51.278;22.550;2023-06-24T00:58:16;9.25;7.00;5.50
72854;PMS7003;60991;51.278;22.550;2023-06-24T00:59:47;9.50;9.50;7.25
72854;PMS7003;60991;51.278;22.550;2023-06-24T01:01:18;9.25;9.25;7.00
72854;PMS7003;60991;51.278;22.550;2023-06-24T01:02:50;9.50;9.50;7.50
72854;PMS7003;60991;51.278;22.550;2023-06-24T01:04:21;10.25;9.75;7.25
72854;PMS7003;60991;51.278;22.550;2023-06-24T01:05:52;9.75;9.25;7.00
72854;PMS7003;60991;51.278;22.550;2023-06-24T01:07:23;11.75;10.00;8.00
72854;PMS7003;60991;51.278;22.550;2023-06-24T01:09:00;10.00;9.00;7.00
72854;PMS7003;60991;51.278;22.550;2023-06-24T01:10:32;9.00;8.25;6.50
72854;PMS7003;60991;51.278;22.550;2023-06-24T01:12:02;11.00;10.00;7.00
72854;PMS7003;60991;51.278;22.550;2023-06-24T01:13:32;10.00;9.00;7.25
72854;PMS7003;60991;51.278;22.550;2023-06-24T01:15:03;10.00;8.50;7.75
72854;PMS7003;60991;51.278;22.550;2023-06-24T01:18:42;8.00;7.75;6.50
72854;PMS7003;60991;51.278;22.550;2023-06-24T01:22:19;9.75;9.75;6.75
72854;PMS7003;60991;51.278;22.550;2023-06-24T01:29:42;7.50;6.75;5.75
72854;PMS7003;60991;51.278;22.550;2023-06-24T01:31:42;9.00;7.50;5.75
72854;PMS7003;60991;51.278;22.550;2023-06-24T01:33:22;7.75;7.75;5.25
72854;PMS7003;60991;51.278;22.550;2023-06-24T01:34:57;7.00;6.25;4.25
72854;PMS7003;60991;51.278;22.550;2023-06-24T01:36:30;9.00;9.00;7.00
72854;PMS7003;60991;51.278;22.550;2023-06-24T01:38:07;6.75;5.75;5.00
72854;PMS7003;60991;51.278;22.550;2023-06-24T01:39:49;7.25;7.25;6.00
72854;PMS7003;60991;51.278;22.550;2023-06-24T01:41:26;9.50;8.00;5.25
72854;PMS7003;60991;51.278;22.550;2023-06-24T01:43:03;9.00;9.00;7.50
72854;PMS7003;60991;51.278;22.550;2023-06-24T01:44:34;5.50;5.00;4.75
72854;PMS7003;60991;51.278;22.550;2023-06-24T01:46:05;7.75;6.25;5.50
72854;PMS7003;60991;51.278;22.550;2023-06-24T01:47:37;7.75;7.25;5.50
72854;PMS7003;60991;51.278;22.550;2023-06-24T01:49:11;7.75;6.25;5.00
72854;PMS7003;60991;51.278;22.550;2023-06-24T01:50:55;6.50;6.00;6.00
72854;PMS7003;60991;51.278;22.550;2023-06-24T01:52:31;8.75;8.75;5.00
72854;PMS7003;60991;51.278;22.550;2023-06-24T01:54:04;8.75;7.75;6.50
72854;PMS7003;60991;51.278;22.550;2023-06-24T01:55:36;7.50;6.50;4.75
72854;PMS7003;60991;51.278;22.550;2023-06-24T01:57:11;6.00;5.50;5.00
72854;PMS7003;60991;51.278;22.550;2023-06-24T01:58:43;8.25;7.25;5.00
72854;PMS7003;60991;51.278;22.550;2023-06-24T02:00:14;9.00;7.25;5.00
72854;PMS7003;60991;51.278;22.550;2023-06-24T02:01:47;7.25;6.50;5.00
72854;PMS7003;60991;51.278;22.550;2023-06-24T02:03:20;5.75;5.75;4.75
72854;PMS7003;60991;51.278;22.550;2023-06-24T02:04:52;7.75;7.75;6.00
72854;PMS7003;60991;51.278;22.550;2023-06-24T02:06:24;8.75;6.50;5.50
72854;PMS7003;60991;51.278;22.550;2023-06-24T02:07:58;8.25;4.50;3.50
72854;PMS7003;60991;51.278;22.550;2023-06-24T02:09:29;9.50;8.00;5.25
72854;PMS7003;60991;51.278;22.550;2023-06-24T02:11:01;5.75;5.75;4.50
72854;PMS7003;60991;51.278;22.550;2023-06-24T02:12:33;7.00;5.00;5.00
72854;PMS7003;60991;51.278;22.550;2023-06-24T02:14:04;8.25;6.00;5.00
72854;PMS7003;60991;51.278;22.550;2023-06-24T02:15:35;6.00;6.00;5.00
72854;PMS7003;60991;51.278;22.550;2023-06-24T02:17:10;5.75;5.75;4.50
72854;PMS7003;60991;51.278;22.550;2023-06-24T02:18:43;6.50;5.25;5.00
72854;PMS7003;60991;51.278;22.550;2023-06-24T02:20:14;7.25;6.50;4.25
72854;PMS7003;60991;51.278;22.550;2023-06-24T02:21:46;7.50;7.00;5.00
72854;PMS7003;60991;51.278;22.550;2023-06-24T02:23:18;7.00;6.00;6.00
72854;PMS7003;60991;51.278;22.550;2023-06-24T02:24:49;7.50;6.00;5.00
72854;PMS7003;60991;51.278;22.550;2023-06-24T02:26:21;8.00;6.75;5.25
72854;PMS7003;60991;51.278;22.550;2023-06-24T02:27:53;7.50;6.75;4.25
72854;PMS7003;60991;51.278;22.550;2023-06-24T02:29:27;8.75;7.00;5.00
72854;PMS7003;60991;51.278;22.550;2023-06-24T02:31:00;6.25;6.25;5.00
72854;PMS7003;60991;51.278;22.550;2023-06-24T02:32:31;6.75;6.75;4.00
72854;PMS7003;60991;51.278;22.550;2023-06-24T02:34:01;5.00;5.00;4.75
72854;PMS7003;60991;51.278;22.550;2023-06-24T02:35:32;5.00;5.00;3.25
72854;PMS7003;60991;51.278;22.550;2023-06-24T02:37:02;5.25;5.25;4.25
72854;PMS7003;60991;51.278;22.550;2023-06-24T02:38:33;6.00;6.00;5.00
72854;PMS7003;60991;51.278;22.550;2023-06-24T02:40:04;5.25;4.75;4.00
72854;PMS7003;60991;51.278;22.550;2023-06-24T02:41:37;5.50;5.50;4.25
72854;PMS7003;60991;51.278;22.550;2023-06-24T02:43:07;6.00;6.00;4.00
72854;PMS7003;60991;51.278;22.550;2023-06-24T02:44:38;5.00;3.50;3.00
72854;PMS7003;60991;51.278;22.550;2023-06-24T02:46:09;5.00;5.00;4.00
72854;PMS7003;60991;51.278;22.550;2023-06-24T02:47:41;6.00;4.50;3.00
72854;PMS7003;60991;51.278;22.550;2023-06-24T02:49:15;4.75;4.25;4.00
72854;PMS7003;60991;51.278;22.550;2023-06-24T02:50:46;6.00;5.50;4.00
72854;PMS7003;60991;51.278;22.550;2023-06-24T02:52:18;6.50;6.50;5.00
72854;PMS7003;60991;51.278;22.550;2023-06-24T02:53:48;7.00;5.00;4.00
72854;PMS7003;60991;51.278;22.550;2023-06-24T02:55:19;5.75;5.00;3.50
72854;PMS7003;60991;51.278;22.550;2023-06-24T02:56:51;7.75;6.00;5.00
72854;PMS7003;60991;51.278;22.550;2023-06-24T02:58:23;7.25;5.75;4.00
72854;PMS7003;60991;51.278;22.550;2023-06-24T02:59:54;8.25;7.50;4.25
72854;PMS7003;60991;51.278;22.550;2023-06-24T03:01:24;7.75;7.75;5.00
72854;PMS7003;60991;51.278;22.550;2023-06-24T03:02:55;4.00;4.00;3.50
72854;PMS7003;60991;51.278;22.550;2023-06-24T03:04:26;7.25;6.00;4.00
72854;PMS7003;60991;51.278;22.550;2023-06-24T03:05:56;8.25;7.00;4.00
72854;PMS7003;60991;51.278;22.550;2023-06-24T03:07:27;4.75;4.75;4.00
72854;PMS7003;60991;51.278;22.550;2023-06-24T03:08:58;6.00;5.50;4.00
72854;PMS7003;60991;51.278;22.550;2023-06-24T03:10:28;5.50;5.50;4.00
72854;PMS7003;60991;51.278;22.550;2023-06-24T03:11:58;6.50;5.50;4.00
72854;PMS7003;60991;51.278;22.550;2023-06-24T03:13:28;7.25;6.00;5.00
72854;PMS7003;60991;51.278;22.550;2023-06-24T03:14:59;5.00;5.00;4.25
72854;PMS7003;60991;51.278;22.550;2023-06-24T03:16:29;4.00;4.00;3.75
72854;PMS7003;60991;51.278;22.550;2023-06-24T03:17:59;7.75;5.50;4.00
72854;PMS7003;60991;51.278;22.550;2023-06-24T03:19:29;6.00;5.00;3.50
72854;PMS7003;60991;51.278;22.550;2023-06-24T03:20:59;4.75;4.75;3.75
72854;PMS7003;60991;51.278;22.550;2023-06-24T03:22:30;2.75;2.75;2.00
72854;PMS7003;60991;51.278;22.550;2023-06-24T03:24:00;6.25;5.00;3.75
72854;PMS7003;60991;51.278;22.550;2023-06-24T03:25:30;4.25;4.00;3.00
72854;PMS7003;60991;51.278;22.550;2023-06-24T03:27:00;6.50;6.00;4.50
72854;PMS7003;60991;51.278;22.550;2023-06-24T03:28:31;5.50;5.50;4.50
72854;PMS7003;60991;51.278;22.550;2023-06-24T03:30:01;6.50;5.00;3.00
72854;PMS7003;60991;51.278;22.550;2023-06-24T03:31:32;7.75;4.75;3.75
72854;PMS7003;60991;51.278;22.550;2023-06-24T03:33:02;5.00;4.00;3.00
72854;PMS7003;60991;51.278;22.550;2023-06-24T03:34:33;6.00;5.25;5.00
72854;PMS7003;60991;51.278;22.550;2023-06-24T03:36:03;3.25;3.25;3.00
72854;PMS7003;60991;51.278;22.550;2023-06-24T03:37:33;7.75;6.25;4.25
72854;PMS7003;60991;51.278;22.550;2023-06-24T03:39:04;6.75;6.00;4.00
72854;PMS7003;60991;51.278;22.550;2023-06-24T03:40:35;5.75;5.75;3.50
72854;PMS7003;60991;51.278;22.550;2023-06-24T03:42:05;5.50;5.50;4.50
72854;PMS7003;60991;51.278;22.550;2023-06-24T03:43:35;7.00;5.50;4.00
72854;PMS7003;60991;51.278;22.550;2023-06-24T03:45:05;7.25;5.25;3.50
72854;PMS7003;60991;51.278;22.550;2023-06-24T03:46:36;5.00;5.00;3.75
72854;PMS7003;60991;51.278;22.550;2023-06-24T03:48:06;6.50;4.25;2.75
72854;PMS7003;60991;51.278;22.550;2023-06-24T03:49:36;6.00;5.00;4.00
72854;PMS7003;60991;51.278;22.550;2023-06-24T03:51:07;7.25;6.00;4.75
72854;PMS7003;60991;51.278;22.550;2023-06-24T03:52:37;7.25;5.50;5.00
72854;PMS7003;60991;51.278;22.550;2023-06-24T03:54:07;8.25;7.25;4.00
72854;PMS7003;60991;51.278;22.550;2023-06-24T03:55:37;6.00;6.00;4.00
72854;PMS7003;60991;51.278;22.550;2023-06-24T03:57:07;6.00;5.25;4.25
72854;PMS7003;60991;51.278;22.550;2023-06-24T03:58:38;4.00;4.00;4.00
72854;PMS7003;60991;51.278;22.550;2023-06-24T04:00:08;5.75;5.25;5.00
72854;PMS7003;60991;51.278;22.550;2023-06-24T04:01:39;6.75;5.75;5.00
72854;PMS7003;60991;51.278;22.550;2023-06-24T04:03:09;5.00;5.00;4.50
72854;PMS7003;60991;51.278;22.550;2023-06-24T04:04:40;7.00;5.50;4.25
72854;PMS7003;60991;51.278;22.550;2023-06-24T04:06:10;6.50;6.50;4.00
72854;PMS7003;60991;51.278;22.550;2023-06-24T04:07:40;4.50;3.25;3.00
72854;PMS7003;60991;51.278;22.550;2023-06-24T04:09:10;2.00;2.00;1.75
72854;PMS7003;60991;51.278;22.550;2023-06-24T04:10:41;5.00;4.25;3.00
72854;PMS7003;60991;51.278;22.550;2023-06-24T04:12:11;9.25;7.75;5.00
72854;PMS7003;60991;51.278;22.550;2023-06-24T04:13:41;5.25;5.25;4.50
72854;PMS7003;60991;51.278;22.550;2023-06-24T04:15:11;5.75;4.00;3.00
72854;PMS7003;60991;51.278;22.550;2023-06-24T04:16:41;7.00;6.00;4.00
72854;PMS7003;60991;51.278;22.550;2023-06-24T04:18:12;4.50;4.25;3.00
72854;PMS7003;60991;51.278;22.550;2023-06-24T04:19:42;6.50;6.50;5.00
72854;PMS7003;60991;51.278;22.550;2023-06-24T04:21:12;4.75;1.50;0.00
72854;PMS7003;60991;51.278;22.550;2023-06-24T04:22:42;9.25;4.25;4.00
72854;PMS7003;60991;51.278;22.550;2023-06-24T04:24:13;6.00;6.00;4.00
72854;PMS7003;60991;51.278;22.550;2023-06-24T04:25:43;5.75;5.75;4.00
72854;PMS7003;60991;51.278;22.550;2023-06-24T04:27:13;6.25;5.00;3.00
72854;PMS7003;60991;51.278;22.550;2023-06-24T04:28:43;7.00;7.00;5.00
72854;PMS7003;60991;51.278;22.550;2023-06-24T04:30:13;5.75;4.00;3.25
72854;PMS7003;60991;51.278;22.550;2023-06-24T04:31:44;6.25;6.25;4.75
72854;PMS7003;60991;51.278;22.550;2023-06-24T04:33:14;6.50;5.00;3.00
72854;PMS7003;60991;51.278;22.550;2023-06-24T04:34:44;4.50;4.50;3.50
72854;PMS7003;60991;51.278;22.550;2023-06-24T04:36:14;9.75;5.25;4.00
72854;PMS7003;60991;51.278;22.550;2023-06-24T04:37:44;6.00;6.00;4.25
72854;PMS7003;60991;51.278;22.550;2023-06-24T04:39:15;4.50;3.00;2.00
72854;PMS7003;60991;51.278;22.550;2023-06-24T04:40:45;6.00;5.00;4.25
72854;PMS7003;60991;51.278;22.550;2023-06-24T04:42:15;5.00;5.00;4.25
72854;PMS7003;60991;51.278;22.550;2023-06-24T04:43:45;7.50;5.75;4.00
72854;PMS7003;60991;51.278;22.550;2023-06-24T04:45:16;6.00;5.25;4.00
72854;PMS7003;60991;51.278;22.550;2023-06-24T04:46:46;5.25;4.25;3.75
72854;PMS7003;60991;51.278;22.550;2023-06-24T04:48:16;4.50;4.50;4.00
72854;PMS7003;60991;51.278;22.550;2023-06-24T04:49:46;5.25;5.25;3.25
72854;PMS7003;60991;51.278;22.550;2023-06-24T04:51:16;6.00;6.00;5.00
72854;PMS7003;60991;51.278;22.550;2023-06-24T04:52:56;8.75;7.00;5.75
72854;PMS7003;60991;51.278;22.550;2023-06-24T04:54:26;4.50;4.50;4.25
72854;PMS7003;60991;51.278;22.550;2023-06-24T04:55:56;6.25;5.75;4.00
72854;PMS7003;60991;51.278;22.550;2023-06-24T04:57:30;6.75;6.75;4.50
72854;PMS7003;60991;51.278;22.550;2023-06-24T04:59:01;5.75;5.75;4.00
72854;PMS7003;60991;51.278;22.550;2023-06-24T05:00:31;4.75;4.75;3.75
72854;PMS7003;60991;51.278;22.550;2023-06-24T05:02:02;5.50;5.50;5.00
72854;PMS7003;60991;51.278;22.550;2023-06-24T05:03:32;6.00;4.00;3.00
72854;PMS7003;60991;51.278;22.550;2023-06-24T05:05:03;5.50;5.00;4.00
72854;PMS7003;60991;51.278;22.550;2023-06-24T05:06:33;6.25;6.25;4.75
72854;PMS7003;60991;51.278;22.550;2023-06-24T05:08:03;4.75;4.50;3.50
72854;PMS7003;60991;51.278;22.550;2023-06-24T05:09:33;4.50;4.50;3.00
72854;PMS7003;60991;51.278;22.550;2023-06-24T05:11:04;5.50;5.50;5.00
72854;PMS7003;60991;51.278;22.550;2023-06-24T05:12:34;8.00;6.50;5.00
72854;PMS7003;60991;51.278;22.550;2023-06-24T05:14:04;6.00;6.00;4.75
72854;PMS7003;60991;51.278;22.550;2023-06-24T05:15:34;7.00;7.00;5.00
72854;PMS7003;60991;51.278;22.550;2023-06-24T05:17:05;8.75;7.50;5.00
72854;PMS7003;60991;51.278;22.550;2023-06-24T05:18:35;6.25;6.25;4.25
72854;PMS7003;60991;51.278;22.550;2023-06-24T05:20:05;7.00;7.00;5.25
72854;PMS7003;60991;51.278;22.550;2023-06-24T05:21:36;6.25;6.25;5.00
72854;PMS7003;60991;51.278;22.550;2023-06-24T05:23:06;5.50;5.00;4.25
72854;PMS7003;60991;51.278;22.550;2023-06-24T05:24:36;7.75;6.00;5.00
72854;PMS7003;60991;51.278;22.550;2023-06-24T05:26:07;6.25;5.50;3.25
72854;PMS7003;60991;51.278;22.550;2023-06-24T05:27:37;7.00;7.00;6.00
72854;PMS7003;60991;51.278;22.550;2023-06-24T05:29:07;5.75;5.75;4.75
72854;PMS7003;60991;51.278;22.550;2023-06-24T05:30:37;3.75;3.75;3.25
72854;PMS7003;60991;51.278;22.550;2023-06-24T05:32:08;7.00;5.50;4.00
72854;PMS7003;60991;51.278;22.550;2023-06-24T05:33:38;7.50;7.50;5.00
72854;PMS7003;60991;51.278;22.550;2023-06-24T05:35:08;6.00;6.00;5.00
72854;PMS7003;60991;51.278;22.550;2023-06-24T05:36:39;6.00;5.00;4.00
72854;PMS7003;60991;51.278;22.550;2023-06-24T05:38:09;5.25;5.00;4.00
72854;PMS7003;60991;51.278;22.550;2023-06-24T05:39:39;8.00;6.00;4.50
72854;PMS7003;60991;51.278;22.550;2023-06-24T05:41:09;6.50;6.50;5.25
72854;PMS7003;60991;51.278;22.550;2023-06-24T05:42:39;6.00;6.00;5.00
72854;PMS7003;60991;51.278;22.550;2023-06-24T05:44:10;1.00;0.50;0.00
72854;PMS7003;60991;51.278;22.550;2023-06-24T05:45:40;6.50;5.50;3.50
72854;PMS7003;60991;51.278;22.550;2023-06-24T05:47:10;5.75;5.75;4.25
72854;PMS7003;60991;51.278;22.550;2023-06-24T05:48:40;8.50;8.25;5.50
72854;PMS7003;60991;51.278;22.550;2023-06-24T05:50:11;6.75;6.75;5.00
72854;PMS7003;60991;51.278;22.550;2023-06-24T05:51:41;6.00;6.00;4.75
72854;PMS7003;60991;51.278;22.550;2023-06-24T05:53:11;8.75;7.50;6.25
72854;PMS7003;60991;51.278;22.550;2023-06-24T05:54:41;7.00;7.00;5.25
72854;PMS7003;60991;51.278;22.550;2023-06-24T05:56:11;7.00;7.00;5.00
72854;PMS7003;60991;51.278;22.550;2023-06-24T05:57:42;6.00;6.00;5.00
72854;PMS7003;60991;51.278;22.550;2023-06-24T05:59:12;7.75;6.00;5.00
72854;PMS7003;60991;51.278;22.550;2023-06-24T06:00:42;8.00;7.25;4.50
72854;PMS7003;60991;51.278;22.550;2023-06-24T06:02:12;5.50;5.50;4.50
72854;PMS7003;60991;51.278;22.550;2023-06-24T06:03:42;6.50;5.00;4.25
72854;PMS7003;60991;51.278;22.550;2023-06-24T06:05:13;5.25;4.75;4.00
72854;PMS7003;60991;51.278;22.550;2023-06-24T06:06:43;5.00;5.00;5.00
72854;PMS7003;60991;51.278;22.550;2023-06-24T06:08:13;6.00;6.00;5.00
72854;PMS7003;60991;51.278;22.550;2023-06-24T06:09:43;5.75;5.00;4.00
72854;PMS7003;60991;51.278;22.550;2023-06-24T06:11:13;7.00;6.00;5.00
72854;PMS7003;60991;51.278;22.550;2023-06-24T06:12:44;7.25;6.75;5.25
72854;PMS7003;60991;51.278;22.550;2023-06-24T06:14:14;7.00;6.50;5.00
72854;PMS7003;60991;51.278;22.550;2023-06-24T06:15:44;6.25;5.75;4.00
72854;PMS7003;60991;51.278;22.550;2023-06-24T06:17:14;6.00;5.50;4.50
72854;PMS7003;60991;51.278;22.550;2023-06-24T06:18:45;8.25;6.00;4.00
72854;PMS7003;60991;51.278;22.550;2023-06-24T06:20:15;6.00;5.25;4.00
72854;PMS7003;60991;51.278;22.550;2023-06-24T06:21:45;4.50;4.50;4.00
72854;PMS7003;60991;51.278;22.550;2023-06-24T06:23:16;7.75;6.50;4.75
72854;PMS7003;60991;51.278;22.550;2023-06-24T06:24:46;7.75;4.75;3.75
72854;PMS7003;60991;51.278;22.550;2023-06-24T06:26:17;5.00;5.00;4.25
72854;PMS7003;60991;51.278;22.550;2023-06-24T06:27:47;5.25;5.25;4.25
72854;PMS7003;60991;51.278;22.550;2023-06-24T06:29:17;5.00;5.00;4.25
72854;PMS7003;60991;51.278;22.550;2023-06-24T06:30:47;6.00;6.00;4.25
72854;PMS7003;60991;51.278;22.550;2023-06-24T06:32:18;5.50;4.75;4.00
72854;PMS7003;60991;51.278;22.550;2023-06-24T06:33:48;6.25;6.00;4.25
72854;PMS7003;60991;51.278;22.550;2023-06-24T06:35:18;3.00;3.00;2.75
72854;PMS7003;60991;51.278;22.550;2023-06-24T06:36:48;6.25;6.25;4.00
72854;PMS7003;60991;51.278;22.550;2023-06-24T06:38:18;5.25;4.50;4.25
72854;PMS7003;60991;51.278;22.550;2023-06-24T06:39:49;5.25;5.25;4.25
72854;PMS7003;60991;51.278;22.550;2023-06-24T06:41:19;6.75;5.00;4.00
72854;PMS7003;60991;51.278;22.550;2023-06-24T06:42:49;6.75;6.00;4.25
72854;PMS7003;60991;51.278;22.550;2023-06-24T06:44:19;6.00;6.00;5.00
72854;PMS7003;60991;51.278;22.550;2023-06-24T06:45:49;7.00;5.00;4.00
72854;PMS7003;60991;51.278;22.550;2023-06-24T06:47:20;4.75;4.00;3.50
72854;PMS7003;60991;51.278;22.550;2023-06-24T06:48:50;7.25;6.75;4.00
72854;PMS7003;60991;51.278;22.550;2023-06-24T06:50:20;6.00;6.00;4.00
72854;PMS7003;60991;51.278;22.550;2023-06-24T06:51:53;9.50;6.00;4.00
72854;PMS7003;60991;51.278;22.550;2023-06-24T06:53:24;5.50;4.50;3.25
72854;PMS7003;60991;51.278;22.550;2023-06-24T06:54:54;5.25;3.50;3.00
72854;PMS7003;60991;51.278;22.550;2023-06-24T06:56:25;4.75;4.75;4.00
72854;PMS7003;60991;51.278;22.550;2023-06-24T06:57:55;5.50;5.50;4.25
72854;PMS7003;60991;51.278;22.550;2023-06-24T06:59:26;9.25;6.00;4.00
72854;PMS7003;60991;51.278;22.550;2023-06-24T07:00:56;4.75;4.00;2.50
72854;PMS7003;60991;51.278;22.550;2023-06-24T07:02:26;5.25;5.25;3.00
72854;PMS7003;60991;51.278;22.550;2023-06-24T07:03:56;3.00;3.00;2.00
72854;PMS7003;60991;51.278;22.550;2023-06-24T07:05:26;6.00;6.00;5.00
72854;PMS7003;60991;51.278;22.550;2023-06-24T07:06:57;3.50;3.50;2.50
72854;PMS7003;60991;51.278;22.550;2023-06-24T07:08:27;8.00;6.25;4.50
72854;PMS7003;60991;51.278;22.550;2023-06-24T07:09:57;5.00;5.00;3.00
72854;PMS7003;60991;51.278;22.550;2023-06-24T07:11:27;6.75;6.75;5.75
72854;PMS7003;60991;51.278;22.550;2023-06-24T07:12:57;8.50;5.25;4.25
72854;PMS7003;60991;51.278;22.550;2023-06-24T07:14:27;6.50;5.75;4.00
72854;PMS7003;60991;51.278;22.550;2023-06-24T07:15:58;6.75;5.25;4.00
72854;PMS7003;60991;51.278;22.550;2023-06-24T07:17:28;3.50;3.25;3.00
72854;PMS7003;60991;51.278;22.550;2023-06-24T07:18:58;4.00;4.00;3.00
72854;PMS7003;60991;51.278;22.550;2023-06-24T07:20:28;5.50;4.50;4.00
72854;PMS7003;60991;51.278;22.550;2023-06-24T07:21:59;4.50;4.50;4.00
72854;PMS7003;60991;51.278;22.550;2023-06-24T07:23:29;7.00;5.00;4.25
72854;PMS7003;60991;51.278;22.550;2023-06-24T07:24:59;7.00;5.75;4.00
72854;PMS7003;60991;51.278;22.550;2023-06-24T07:26:29;4.25;4.25;4.00
72854;PMS7003;60991;51.278;22.550;2023-06-24T07:27:59;6.75;5.00;4.50
72854;PMS7003;60991;51.278;22.550;2023-06-24T07:29:30;3.75;3.00;3.00
72854;PMS7003;60991;51.278;22.550;2023-06-24T07:31:00;6.50;6.50;4.50
72854;PMS7003;60991;51.278;22.550;2023-06-24T07:32:30;4.25;4.25;2.50
72854;PMS7003;60991;51.278;22.550;2023-06-24T07:34:01;6.50;6.00;4.75
72854;PMS7003;60991;51.278;22.550;2023-06-24T07:35:31;7.50;6.00;4.75
72854;PMS7003;60991;51.278;22.550;2023-06-24T07:37:02;6.00;5.25;3.50
72854;PMS7003;60991;51.278;22.550;2023-06-24T07:38:32;5.00;5.00;3.00
72854;PMS7003;60991;51.278;22.550;2023-06-24T07:40:02;5.75;5.00;4.00
72854;PMS7003;60991;51.278;22.550;2023-06-24T07:41:33;6.00;6.00;4.25
72854;PMS7003;60991;51.278;22.550;2023-06-24T07:43:03;5.25;4.00;3.00
72854;PMS7003;60991;51.278;22.550;2023-06-24T07:44:33;5.25;5.25;3.75
72854;PMS7003;60991;51.278;22.550;2023-06-24T07:46:03;7.50;7.50;5.50
72854;PMS7003;60991;51.278;22.550;2023-06-24T07:47:34;6.50;6.00;5.00
72854;PMS7003;60991;51.278;22.550;2023-06-24T07:49:04;8.25;7.00;5.00
72854;PMS7003;60991;51.278;22.550;2023-06-24T07:50:34;7.00;5.50;4.00
72854;PMS7003;60991;51.278;22.550;2023-06-24T07:52:04;6.50;6.00;4.50
72854;PMS7003;60991;51.278;22.550;2023-06-24T07:53:35;5.25;5.25;5.00
72854;PMS7003;60991;51.278;22.550;2023-06-24T07:55:05;5.25;5.25;4.00
72854;PMS7003;60991;51.278;22.550;2023-06-24T07:56:35;4.00;4.00;3.00
72854;PMS7003;60991;51.278;22.550;2023-06-24T07:58:06;7.00;5.75;4.25
72854;PMS7003;60991;51.278;22.550;2023-06-24T07:59:36;6.50;5.00;3.00
72854;PMS7003;60991;51.278;22.550;2023-06-24T08:01:06;4.00;4.00;3.00
72854;PMS7003;60991;51.278;22.550;2023-06-24T08:02:36;7.00;5.50;4.00
72854;PMS7003;60991;51.278;22.550;2023-06-24T08:04:06;8.00;8.00;5.50
72854;PMS7003;60991;51.278;22.550;2023-06-24T08:05:37;4.75;4.75;4.00
72854;PMS7003;60991;51.278;22.550;2023-06-24T08:07:07;5.75;5.00;3.00
72854;PMS7003;60991;51.278;22.550;2023-06-24T08:08:37;7.00;6.25;5.00
72854;PMS7003;60991;51.278;22.550;2023-06-24T08:10:07;4.75;4.75;4.00
72854;PMS7003;60991;51.278;22.550;2023-06-24T08:11:37;4.25;4.25;3.50
72854;PMS7003;60991;51.278;22.550;2023-06-24T08:13:08;5.75;5.75;4.75
72854;PMS7003;60991;51.278;22.550;2023-06-24T08:14:38;5.00;5.00;3.75
72854;PMS7003;60991;51.278;22.550;2023-06-24T08:16:08;6.50;6.00;4.00
72854;PMS7003;60991;51.278;22.550;2023-06-24T08:17:38;6.50;6.50;5.00
72854;PMS7003;60991;51.278;22.550;2023-06-24T08:19:09;6.75;5.25;3.00
72854;PMS7003;60991;51.278;22.550;2023-06-24T08:20:39;4.25;4.25;4.00
72854;PMS7003;60991;51.278;22.550;2023-06-24T08:22:09;6.00;5.25;3.75
72854;PMS7003;60991;51.278;22.550;2023-06-24T08:23:39;4.25;4.25;4.00
72854;PMS7003;60991;51.278;22.550;2023-06-24T08:25:09;5.00;5.00;3.50
72854;PMS7003;60991;51.278;22.550;2023-06-24T08:26:40;6.25;5.00;3.50
72854;PMS7003;60991;51.278;22.550;2023-06-24T08:28:10;5.00;5.00;3.75
72854;PMS7003;60991;51.278;22.550;2023-06-24T08:29:41;4.50;4.50;3.50
72854;PMS7003;60991;51.278;22.550;2023-06-24T08:31:11;6.00;5.00;3.75
72854;PMS7003;60991;51.278;22.550;2023-06-24T08:32:41;4.00;3.50;3.00
72854;PMS7003;60991;51.278;22.550;2023-06-24T08:34:12;5.00;3.00;3.00
72854;PMS7003;60991;51.278;22.550;2023-06-24T08:35:42;3.50;3.25;2.25
72854;PMS7003;60991;51.278;22.550;2023-06-24T08:37:12;4.25;4.25;2.75
72854;PMS7003;60991;51.278;22.550;2023-06-24T08:38:42;7.00;7.00;4.00
72854;PMS7003;60991;51.278;22.550;2023-06-24T08:40:12;6.00;5.50;4.00
72854;PMS7003;60991;51.278;22.550;2023-06-24T08:41:43;5.00;5.00;4.00
72854;PMS7003;60991;51.278;22.550;2023-06-24T08:43:13;6.50;5.50;3.25
72854;PMS7003;60991;51.278;22.550;2023-06-24T08:44:43;5.50;4.00;3.00
72854;PMS7003;60991;51.278;22.550;2023-06-24T08:46:14;4.25;3.75;2.25
72854;PMS7003;60991;51.278;22.550;2023-06-24T08:47:47;3.75;3.25;2.50
72854;PMS7003;60991;51.278;22.550;2023-06-24T08:50:53;7.00;3.75;2.75
72854;PMS7003;60991;51.278;22.550;2023-06-24T08:52:26;4.00;4.00;3.00
72854;PMS7003;60991;51.278;22.550;2023-06-24T08:54:01;3.00;2.00;2.00